F/d Athina — SW7686 — position and weather

sailwx.info

Track history (hours):
 
Tides and Currents Weather Stations Pressure Air Temp Water Temp Dewpoint Dewpoint Depression Visibility Wind Speed Wind Dir Waves Ship Positions

F/d Athina

Last reported at 2017-Nov-24 08:42 UTC. Time now 2017-Nov-24 11:29 UTC.
Position N 37°45' E 023°26'.

Length 35 m; draft 1.8 m.

Type: Ship (hazmat cat B). MMSI: 237247600.

Date/timePositionNaut miles runAvg speedWind from/ knotsBaromVisibWave heightAir tempDewpointWater temp
2017-Nov-24 08:42N 37°45' E 023°26'525.2
2017-Nov-24 08:30N 37°49' E 023°29'1122.1
2017-Nov-24 08:00N 37°57' E 023°39'510.7
2017-Nov-24 07:31N 37°53' E 023°34'1121.0
2017-Nov-24 07:00N 37°45' E 023°26'1 1.2
2017-Nov-24 06:30N 37°45' E 023°25'1530.2
2017-Nov-24 06:01N 37°56' E 023°38'3 6.7
2017-Nov-24 05:31N 37°54' E 023°35'12 0.9
2017-Nov-23 16:49N 37°45' E 023°26'825.8
2017-Nov-23 16:30N 37°51' E 023°32'815.1
2017-Nov-23 16:00N 37°57' E 023°39'918.7
2017-Nov-23 15:31N 37°50' E 023°31'1019.8
2017-Nov-23 15:00N 37°43' E 023°21'510.3
2017-Nov-23 14:30N 37°47' E 023°26'1428.0
2017-Nov-23 14:00N 37°57' E 023°38'3 5.3
2017-Nov-23 13:31N 37°55' E 023°36'13 2.7
2017-Nov-23 08:41N 37°45' E 023°25'528.3
2017-Nov-23 08:31N 37°49' E 023°29'1121.5
2017-Nov-23 08:01N 37°57' E 023°39'714.2
2017-Nov-23 07:31N 37°53' E 023°31'1019.5
2017-Nov-23 07:00N 37°45' E 023°25'1 1.0
2017-Nov-23 06:30N 37°45' E 023°25'1530.0
2017-Nov-23 06:01N 37°56' E 023°38'5 9.1
2017-Nov-23 05:30N 37°54' E 023°32'  
2017-Nov-19 16:45N 37°45' E 023°26'623.0
2017-Nov-19 16:31N 37°49' E 023°30'1020.1
2017-Nov-19 16:00N 37°57' E 023°39'816.0
2017-Nov-19 15:31N 37°51' E 023°32'816.5
2017-Nov-19 15:01N 37°44' E 023°25'0 0.9
2017-Nov-19 14:30N 37°45' E 023°26'1429.1
2017-Nov-19 14:01N 37°56' E 023°37'1 2.6
2017-Nov-19 13:30N 37°55' E 023°35'13 4.6
2017-Nov-19 10:41N 37°45' E 023°26'319.8
2017-Nov-19 10:30N 37°48' E 023°27'1217.5
2017-Nov-19 09:49N 37°56' E 023°38'928.3
2017-Nov-19 09:30N 37°52' E 023°28'1019.0
2017-Nov-19 09:00N 37°44' E 023°23'2 4.7
2017-Nov-19 08:30N 37°46' E 023°25'1528.9
2017-Nov-19 07:59N 37°56' E 023°38'4 7.8
2017-Nov-19 07:30N 37°55' E 023°34'12 0.8
2017-Nov-18 16:43N 37°45' E 023°26'524.1
2017-Nov-18 16:30N 37°50' E 023°26'1214.8
2017-Nov-18 15:43N 37°57' E 023°38'525.2
2017-Nov-18 15:30N 37°54' E 023°32'1122.5
2017-Nov-18 15:00N 37°44' E 023°25'2 3.5
2017-Nov-18 14:30N 37°46' E 023°25'1529.1
2017-Nov-18 14:00N 37°56' E 023°38'3 5.6
2017-Nov-18 13:31N 37°55' E 023°35'13 4.6
2017-Nov-18 10:44N 37°45' E 023°26'625.1
2017-Nov-18 10:30N 37°50' E 023°28'1114.1
2017-Nov-18 09:46N 37°57' E 023°38'625.4
2017-Nov-18 09:30N 37°54' E 023°31'1122.8
2017-Nov-18 09:01N 37°44' E 023°23'4 7.3
2017-Nov-18 08:30N 37°47' E 023°26'1415.9
2017-Nov-18 07:39N 37°56' E 023°38'321.7
2017-Nov-18 07:31N 37°54' E 023°35'12 0.8
2017-Nov-17 16:36N 37°46' E 023°25'331.9
2017-Nov-17 16:30N 37°48' E 023°27'1215.0
2017-Nov-17 15:42N 37°56' E 023°38'525.5
2017-Nov-17 15:31N 37°54' E 023°33'1520.7
2017-Nov-17 14:48N 37°43' E 023°21'414.1
2017-Nov-17 14:30N 37°46' E 023°25'1517.8
2017-Nov-17 13:39N 37°56' E 023°38'322.6
2017-Nov-17 13:31N 37°55' E 023°34'13 2.6
2017-Nov-17 08:40N 37°45' E 023°26'427.9
2017-Nov-17 08:31N 37°49' E 023°27'1223.6
2017-Nov-17 08:00N 37°57' E 023°39'816.3
2017-Nov-17 07:31N 37°52' E 023°30'1122.5
2017-Nov-17 07:01N 37°43' E 023°22'612.9
2017-Nov-17 06:31N 37°47' E 023°28'1325.3
2017-Nov-17 06:00N 37°57' E 023°39'612.8
2017-Nov-17 05:31N 37°54' E 023°31'10 0.8
2017-Nov-16 16:40N 37°45' E 023°26'320.0
2017-Nov-16 16:30N 37°48' E 023°27'1325.7
2017-Nov-16 16:01N 37°57' E 023°39'816.0
2017-Nov-16 15:31N 37°53' E 023°30'9 1.3
2017-Nov-16 08:47N 37°45' E 023°26'828.2
2017-Nov-16 08:31N 37°52' E 023°29'917.4
2017-Nov-16 08:00N 37°57' E 023°39'1122.4
2017-Nov-16 07:30N 37°50' E 023°27'917.6
2017-Nov-16 07:00N 37°43' E 023°21'1019.4
2017-Nov-16 06:31N 37°49' E 023°30'1020.0
2017-Nov-16 06:00N 37°57' E 023°39'612.6
2017-Nov-16 05:31N 37°54' E 023°31'10 0.9
2017-Nov-15 18:14N 37°45' E 023°26'521.0
2017-Nov-15 18:00N 37°49' E 023°29'10 1.4
2017-Nov-15 10:47N 37°58' E 023°34'0 0.9
2017-Nov-15 10:31N 37°57' E 023°34'4 7.1
2017-Nov-15 09:59N 37°57' E 023°39'0 0.0
2017-Nov-15 08:00N 37°57' E 023°39'611.7
2017-Nov-15 07:31N 37°54' E 023°32'1121.1
2017-Nov-15 07:00N 37°45' E 023°26'0 0.2
2017-Nov-15 06:29N 37°45' E 023°26'1428.4
2017-Nov-15 06:00N 37°56' E 023°36'2 4.8
2017-Nov-15 05:31N 37°54' E 023°33'11 0.9
2017-Nov-14 16:42N 37°45' E 023°26'419.7
2017-Nov-14 16:31N 37°48' E 023°27'1224.7
2017-Nov-14 16:01N 37°57' E 023°39'713.3
2017-Nov-14 15:31N 37°52' E 023°33'918.9
2017-Nov-14 15:01N 37°44' E 023°25'0 0.7
2017-Nov-14 14:29N 37°45' E 023°26'1429.6
2017-Nov-14 14:01N 37°56' E 023°37'1 2.6
2017-Nov-14 13:31N 37°55' E 023°35'  
Track history (hours):
 
Tides and Currents Weather Stations Pressure Air Temp Water Temp Dewpoint Dewpoint Depression Visibility Wind Speed Wind Dir Waves Ship Positions

F/d Athina

Last reported at 2017-Nov-24 08:42 UTC. Time now 2017-Nov-24 11:29 UTC.
Position N 37°45' E 023°26'.

Length 35 m; draft 1.8 m.

Type: Ship (hazmat cat B). MMSI: 237247600.

Date/timePositionNaut miles runAvg speedWind from/ knotsBaromVisibWave heightAir tempDewpointWater temp
2017-Nov-24 08:42N 37°45' E 023°26'525.2
2017-Nov-24 08:30N 37°49' E 023°29'1122.1
2017-Nov-24 08:00N 37°57' E 023°39'510.7
2017-Nov-24 07:31N 37°53' E 023°34'1121.0
2017-Nov-24 07:00N 37°45' E 023°26'1 1.2
2017-Nov-24 06:30N 37°45' E 023°25'1530.2
2017-Nov-24 06:01N 37°56' E 023°38'3 6.7
2017-Nov-24 05:31N 37°54' E 023°35'12 0.9
2017-Nov-23 16:49N 37°45' E 023°26'825.8
2017-Nov-23 16:30N 37°51' E 023°32'815.1
2017-Nov-23 16:00N 37°57' E 023°39'918.7
2017-Nov-23 15:31N 37°50' E 023°31'1019.8
2017-Nov-23 15:00N 37°43' E 023°21'510.3
2017-Nov-23 14:30N 37°47' E 023°26'1428.0
2017-Nov-23 14:00N 37°57' E 023°38'3 5.3
2017-Nov-23 13:31N 37°55' E 023°36'13 2.7
2017-Nov-23 08:41N 37°45' E 023°25'528.3
2017-Nov-23 08:31N 37°49' E 023°29'1121.5
2017-Nov-23 08:01N 37°57' E 023°39'714.2
2017-Nov-23 07:31N 37°53' E 023°31'1019.5
2017-Nov-23 07:00N 37°45' E 023°25'1 1.0
2017-Nov-23 06:30N 37°45' E 023°25'1530.0
2017-Nov-23 06:01N 37°56' E 023°38'5 9.1
2017-Nov-23 05:30N 37°54' E 023°32'  
2017-Nov-19 16:45N 37°45' E 023°26'623.0
2017-Nov-19 16:31N 37°49' E 023°30'1020.1
2017-Nov-19 16:00N 37°57' E 023°39'816.0
2017-Nov-19 15:31N 37°51' E 023°32'816.5
2017-Nov-19 15:01N 37°44' E 023°25'0 0.9
2017-Nov-19 14:30N 37°45' E 023°26'1429.1
2017-Nov-19 14:01N 37°56' E 023°37'1 2.6
2017-Nov-19 13:30N 37°55' E 023°35'13 4.6
2017-Nov-19 10:41N 37°45' E 023°26'319.8
2017-Nov-19 10:30N 37°48' E 023°27'1217.5
2017-Nov-19 09:49N 37°56' E 023°38'928.3
2017-Nov-19 09:30N 37°52' E 023°28'1019.0
2017-Nov-19 09:00N 37°44' E 023°23'2 4.7
2017-Nov-19 08:30N 37°46' E 023°25'1528.9
2017-Nov-19 07:59N 37°56' E 023°38'4 7.8
2017-Nov-19 07:30N 37°55' E 023°34'12 0.8
2017-Nov-18 16:43N 37°45' E 023°26'524.1
2017-Nov-18 16:30N 37°50' E 023°26'1214.8
2017-Nov-18 15:43N 37°57' E 023°38'525.2
2017-Nov-18 15:30N 37°54' E 023°32'1122.5
2017-Nov-18 15:00N 37°44' E 023°25'2 3.5
2017-Nov-18 14:30N 37°46' E 023°25'1529.1
2017-Nov-18 14:00N 37°56' E 023°38'3 5.6
2017-Nov-18 13:31N 37°55' E 023°35'13 4.6
2017-Nov-18 10:44N 37°45' E 023°26'625.1
2017-Nov-18 10:30N 37°50' E 023°28'1114.1
2017-Nov-18 09:46N 37°57' E 023°38'625.4
2017-Nov-18 09:30N 37°54' E 023°31'1122.8
2017-Nov-18 09:01N 37°44' E 023°23'4 7.3
2017-Nov-18 08:30N 37°47' E 023°26'1415.9
2017-Nov-18 07:39N 37°56' E 023°38'321.7
2017-Nov-18 07:31N 37°54' E 023°35'12 0.8
2017-Nov-17 16:36N 37°46' E 023°25'331.9
2017-Nov-17 16:30N 37°48' E 023°27'1215.0
2017-Nov-17 15:42N 37°56' E 023°38'525.5
2017-Nov-17 15:31N 37°54' E 023°33'1520.7
2017-Nov-17 14:48N 37°43' E 023°21'414.1
2017-Nov-17 14:30N 37°46' E 023°25'1517.8
2017-Nov-17 13:39N 37°56' E 023°38'322.6
2017-Nov-17 13:31N 37°55' E 023°34'13 2.6
2017-Nov-17 08:40N 37°45' E 023°26'427.9
2017-Nov-17 08:31N 37°49' E 023°27'1223.6
2017-Nov-17 08:00N 37°57' E 023°39'816.3
2017-Nov-17 07:31N 37°52' E 023°30'1122.5
2017-Nov-17 07:01N 37°43' E 023°22'612.9
2017-Nov-17 06:31N 37°47' E 023°28'1325.3
2017-Nov-17 06:00N 37°57' E 023°39'612.8
2017-Nov-17 05:31N 37°54' E 023°31'10 0.8
2017-Nov-16 16:40N 37°45' E 023°26'320.0
2017-Nov-16 16:30N 37°48' E 023°27'1325.7
2017-Nov-16 16:01N 37°57' E 023°39'816.0
2017-Nov-16 15:31N 37°53' E 023°30'9 1.3
2017-Nov-16 08:47N 37°45' E 023°26'828.2
2017-Nov-16 08:31N 37°52' E 023°29'917.4
2017-Nov-16 08:00N 37°57' E 023°39'1122.4
2017-Nov-16 07:30N 37°50' E 023°27'917.6
2017-Nov-16 07:00N 37°43' E 023°21'1019.4
2017-Nov-16 06:31N 37°49' E 023°30'1020.0
2017-Nov-16 06:00N 37°57' E 023°39'612.6
2017-Nov-16 05:31N 37°54' E 023°31'10 0.9
2017-Nov-15 18:14N 37°45' E 023°26'521.0
2017-Nov-15 18:00N 37°49' E 023°29'10 1.4
2017-Nov-15 10:47N 37°58' E 023°34'0 0.9
2017-Nov-15 10:31N 37°57' E 023°34'4 7.1
2017-Nov-15 09:59N 37°57' E 023°39'0 0.0
2017-Nov-15 08:00N 37°57' E 023°39'611.7
2017-Nov-15 07:31N 37°54' E 023°32'1121.1
2017-Nov-15 07:00N 37°45' E 023°26'0 0.2
2017-Nov-15 06:29N 37°45' E 023°26'1428.4
2017-Nov-15 06:00N 37°56' E 023°36'2 4.8
2017-Nov-15 05:31N 37°54' E 023°33'11 0.9
2017-Nov-14 16:42N 37°45' E 023°26'419.7
2017-Nov-14 16:31N 37°48' E 023°27'1224.7
2017-Nov-14 16:01N 37°57' E 023°39'713.3
2017-Nov-14 15:31N 37°52' E 023°33'918.9
2017-Nov-14 15:01N 37°44' E 023°25'0 0.7
2017-Nov-14 14:29N 37°45' E 023°26'1429.6
2017-Nov-14 14:01N 37°56' E 023°37'1 2.6
2017-Nov-14 13:31N 37°55' E 023°35'  

Dump ship's entire track history